首页
METAR-TAF:

METAR-TAF

机场 :

雅蒲島, 密克罗尼西亚群岛

雅蒲島國際機場

纬度: 09-29N, 经度: 138-05E, 海拔: 28米

当前天气观测

该预报发布于32分钟前的21:51 UTC
风速6节,风向多变
温度 29°C
湿度 79%
气压 1008 hPa
能見度: 19.3公里
少量云层高于1700英尺
散云层高于30000英尺

METAR: PTYA 252151Z VRB06KT 12SM FEW017 SCT300 29/25 A2978 RMK SLP084 T02870248

时间: 08:23 (22:23 UTC)

预报

该预报发布于4小时和41分钟前的17:42 UTC
预报有效从25日的 18点(UTC)到 26日的 18点(UTC)
风速6节,风向东北
能見度: 10公里
散云层高于1600英尺

TAF: PTYA 251742Z 2518/2618 05006KT P6SM SCT016

超过4000个机场的气象观测和天气预报(METAR&TAF报告)。

可查询的气象台以黄色和红色小点在地图上表示。

将鼠标移到小点上方,可查看气象台名称。

然后点击查看天气观测和预报。

如需切换地图:点击带黑十字的绿色按钮放大地图;点击带横线的绿色按钮缩小地图;或者点击绿色箭头查看邻近地区的地图。


METAR-TAF: